sensor_id;sensor_type;location;lat;lon;timestamp;P1;durP1;ratioP1;P2;durP2;ratioP2
33190;SDS011;19554;42.652;23.364;2023-07-13T00:00:34;5.28;;;4.03;;
33190;SDS011;19554;42.652;23.364;2023-07-13T00:03:01;6.60;;;4.95;;
33190;SDS011;19554;42.652;23.364;2023-07-13T00:05:27;10.77;;;4.93;;
33190;SDS011;19554;42.652;23.364;2023-07-13T00:07:52;10.93;;;4.40;;
33190;SDS011;19554;42.652;23.364;2023-07-13T00:10:19;6.53;;;4.65;;
33190;SDS011;19554;42.652;23.364;2023-07-13T00:12:45;7.97;;;4.53;;
33190;SDS011;19554;42.652;23.364;2023-07-13T00:15:18;10.00;;;4.03;;
33190;SDS011;19554;42.652;23.364;2023-07-13T00:17:51;6.75;;;4.43;;
33190;SDS011;19554;42.652;23.364;2023-07-13T00:22:47;6.05;;;4.53;;
33190;SDS011;19554;42.652;23.364;2023-07-13T00:25:13;10.00;;;4.97;;
33190;SDS011;19554;42.652;23.364;2023-07-13T00:27:38;7.47;;;4.80;;
33190;SDS011;19554;42.652;23.364;2023-07-13T00:30:04;9.85;;;4.93;;
33190;SDS011;19554;42.652;23.364;2023-07-13T00:32:30;8.55;;;4.70;;
33190;SDS011;19554;42.652;23.364;2023-07-13T00:34:56;7.45;;;4.32;;
33190;SDS011;19554;42.652;23.364;2023-07-13T00:37:22;9.73;;;5.25;;
33190;SDS011;19554;42.652;23.364;2023-07-13T00:39:48;14.13;;;5.30;;
33190;SDS011;19554;42.652;23.364;2023-07-13T00:42:14;11.38;;;4.72;;
33190;SDS011;19554;42.652;23.364;2023-07-13T00:44:40;10.70;;;4.95;;
33190;SDS011;19554;42.652;23.364;2023-07-13T00:47:06;6.95;;;4.47;;
33190;SDS011;19554;42.652;23.364;2023-07-13T00:49:32;9.93;;;5.20;;
33190;SDS011;19554;42.652;23.364;2023-07-13T00:52:04;11.32;;;4.53;;
33190;SDS011;19554;42.652;23.364;2023-07-13T00:54:37;9.70;;;4.55;;
33190;SDS011;19554;42.652;23.364;2023-07-13T00:57:07;8.52;;;4.75;;
33190;SDS011;19554;42.652;23.364;2023-07-13T00:59:37;6.28;;;4.40;;
33190;SDS011;19554;42.652;23.364;2023-07-13T01:02:08;6.45;;;4.65;;
33190;SDS011;19554;42.652;23.364;2023-07-13T01:04:34;8.23;;;4.57;;
33190;SDS011;19554;42.652;23.364;2023-07-13T01:06:59;5.97;;;4.65;;
33190;SDS011;19554;42.652;23.364;2023-07-13T01:09:26;6.20;;;4.40;;
33190;SDS011;19554;42.652;23.364;2023-07-13T01:11:52;10.98;;;4.55;;
33190;SDS011;19554;42.652;23.364;2023-07-13T01:14:17;9.18;;;4.20;;
33190;SDS011;19554;42.652;23.364;2023-07-13T01:16:44;7.10;;;4.53;;
33190;SDS011;19554;42.652;23.364;2023-07-13T01:19:18;8.68;;;4.28;;
33190;SDS011;19554;42.652;23.364;2023-07-13T01:21:46;5.43;;;4.25;;
33190;SDS011;19554;42.652;23.364;2023-07-13T01:24:15;7.75;;;4.70;;
33190;SDS011;19554;42.652;23.364;2023-07-13T01:26:41;6.30;;;4.20;;
33190;SDS011;19554;42.652;23.364;2023-07-13T01:29:06;8.52;;;4.55;;
33190;SDS011;19554;42.652;23.364;2023-07-13T01:31:32;9.10;;;4.70;;
33190;SDS011;19554;42.652;23.364;2023-07-13T01:33:58;10.48;;;4.63;;
33190;SDS011;19554;42.652;23.364;2023-07-13T01:36:23;8.60;;;5.28;;
33190;SDS011;19554;42.652;23.364;2023-07-13T01:38:49;7.22;;;4.88;;
33190;SDS011;19554;42.652;23.364;2023-07-13T01:41:14;11.13;;;4.70;;
33190;SDS011;19554;42.652;23.364;2023-07-13T01:43:40;8.48;;;4.60;;
33190;SDS011;19554;42.652;23.364;2023-07-13T01:46:05;7.28;;;5.10;;
33190;SDS011;19554;42.652;23.364;2023-07-13T01:48:30;8.57;;;4.78;;
33190;SDS011;19554;42.652;23.364;2023-07-13T01:50:56;8.88;;;4.88;;
33190;SDS011;19554;42.652;23.364;2023-07-13T01:53:21;8.65;;;5.00;;
33190;SDS011;19554;42.652;23.364;2023-07-13T01:55:47;7.15;;;5.05;;
33190;SDS011;19554;42.652;23.364;2023-07-13T01:58:12;8.30;;;4.85;;
33190;SDS011;19554;42.652;23.364;2023-07-13T02:00:37;8.70;;;5.20;;
33190;SDS011;19554;42.652;23.364;2023-07-13T02:03:03;10.02;;;4.75;;
33190;SDS011;19554;42.652;23.364;2023-07-13T02:05:29;9.52;;;4.70;;
33190;SDS011;19554;42.652;23.364;2023-07-13T02:07:54;7.88;;;4.47;;
33190;SDS011;19554;42.652;23.364;2023-07-13T02:10:20;6.95;;;4.57;;
33190;SDS011;19554;42.652;23.364;2023-07-13T02:12:47;11.30;;;5.13;;
33190;SDS011;19554;42.652;23.364;2023-07-13T02:15:14;7.90;;;5.30;;
33190;SDS011;19554;42.652;23.364;2023-07-13T02:17:39;10.85;;;4.80;;
33190;SDS011;19554;42.652;23.364;2023-07-13T02:20:06;7.53;;;5.13;;
33190;SDS011;19554;42.652;23.364;2023-07-13T02:22:33;7.07;;;4.95;;
33190;SDS011;19554;42.652;23.364;2023-07-13T02:24:58;9.85;;;5.07;;
33190;SDS011;19554;42.652;23.364;2023-07-13T02:27:24;10.93;;;5.25;;
33190;SDS011;19554;42.652;23.364;2023-07-13T02:29:50;8.02;;;5.32;;
33190;SDS011;19554;42.652;23.364;2023-07-13T02:32:16;7.55;;;4.50;;
33190;SDS011;19554;42.652;23.364;2023-07-13T02:34:42;12.13;;;5.47;;
33190;SDS011;19554;42.652;23.364;2023-07-13T02:37:08;6.63;;;4.82;;
33190;SDS011;19554;42.652;23.364;2023-07-13T02:39:33;7.90;;;5.07;;
33190;SDS011;19554;42.652;23.364;2023-07-13T02:41:59;6.47;;;4.88;;
33190;SDS011;19554;42.652;23.364;2023-07-13T02:44:25;7.70;;;4.72;;
33190;SDS011;19554;42.652;23.364;2023-07-13T02:46:51;7.72;;;5.10;;
33190;SDS011;19554;42.652;23.364;2023-07-13T02:49:16;9.52;;;4.95;;
33190;SDS011;19554;42.652;23.364;2023-07-13T02:51:42;7.88;;;5.32;;
33190;SDS011;19554;42.652;23.364;2023-07-13T02:54:08;9.63;;;4.68;;
33190;SDS011;19554;42.652;23.364;2023-07-13T02:56:34;11.43;;;5.40;;
33190;SDS011;19554;42.652;23.364;2023-07-13T02:58:59;13.00;;;5.75;;
33190;SDS011;19554;42.652;23.364;2023-07-13T03:01:25;10.68;;;5.38;;
33190;SDS011;19554;42.652;23.364;2023-07-13T03:03:51;8.93;;;5.13;;
33190;SDS011;19554;42.652;23.364;2023-07-13T03:06:18;12.30;;;5.40;;
33190;SDS011;19554;42.652;23.364;2023-07-13T03:08:44;10.20;;;6.60;;
33190;SDS011;19554;42.652;23.364;2023-07-13T03:11:11;7.95;;;6.22;;
33190;SDS011;19554;42.652;23.364;2023-07-13T03:13:39;13.65;;;5.82;;
33190;SDS011;19554;42.652;23.364;2023-07-13T03:16:06;8.65;;;5.50;;
33190;SDS011;19554;42.652;23.364;2023-07-13T03:18:32;11.52;;;5.95;;
33190;SDS011;19554;42.652;23.364;2023-07-13T03:20:57;9.23;;;5.60;;
33190;SDS011;19554;42.652;23.364;2023-07-13T03:23:23;14.73;;;5.95;;
33190;SDS011;19554;42.652;23.364;2023-07-13T03:25:50;8.30;;;5.20;;
33190;SDS011;19554;42.652;23.364;2023-07-13T03:28:15;8.25;;;5.45;;
33190;SDS011;19554;42.652;23.364;2023-07-13T03:30:42;16.33;;;5.90;;
33190;SDS011;19554;42.652;23.364;2023-07-13T03:33:07;9.15;;;5.80;;
33190;SDS011;19554;42.652;23.364;2023-07-13T03:35:33;13.27;;;6.07;;
33190;SDS011;19554;42.652;23.364;2023-07-13T03:38:00;12.25;;;6.03;;
33190;SDS011;19554;42.652;23.364;2023-07-13T03:40:26;17.95;;;6.47;;
33190;SDS011;19554;42.652;23.364;2023-07-13T03:42:52;13.02;;;6.13;;
33190;SDS011;19554;42.652;23.364;2023-07-13T03:45:17;16.77;;;6.68;;
33190;SDS011;19554;42.652;23.364;2023-07-13T03:47:43;10.38;;;6.43;;
33190;SDS011;19554;42.652;23.364;2023-07-13T03:50:08;11.95;;;6.30;;
33190;SDS011;19554;42.652;23.364;2023-07-13T03:52:34;14.15;;;5.80;;
33190;SDS011;19554;42.652;23.364;2023-07-13T03:55:00;11.43;;;6.30;;
33190;SDS011;19554;42.652;23.364;2023-07-13T03:57:25;16.65;;;6.53;;
33190;SDS011;19554;42.652;23.364;2023-07-13T03:59:50;21.70;;;6.15;;
33190;SDS011;19554;42.652;23.364;2023-07-13T04:02:16;14.25;;;6.10;;
33190;SDS011;19554;42.652;23.364;2023-07-13T04:04:42;16.33;;;5.32;;
33190;SDS011;19554;42.652;23.364;2023-07-13T04:07:08;10.82;;;5.38;;
33190;SDS011;19554;42.652;23.364;2023-07-13T04:09:34;11.90;;;6.07;;
33190;SDS011;19554;42.652;23.364;2023-07-13T04:11:59;15.43;;;5.68;;
33190;SDS011;19554;42.652;23.364;2023-07-13T04:14:25;13.77;;;6.13;;
33190;SDS011;19554;42.652;23.364;2023-07-13T04:16:50;13.60;;;5.93;;
33190;SDS011;19554;42.652;23.364;2023-07-13T04:19:16;13.02;;;6.22;;
33190;SDS011;19554;42.652;23.364;2023-07-13T04:21:41;13.68;;;5.97;;
33190;SDS011;19554;42.652;23.364;2023-07-13T04:24:07;17.63;;;6.53;;
33190;SDS011;19554;42.652;23.364;2023-07-13T04:26:32;11.75;;;5.93;;
33190;SDS011;19554;42.652;23.364;2023-07-13T04:29:00;14.70;;;6.03;;
33190;SDS011;19554;42.652;23.364;2023-07-13T04:31:28;18.75;;;6.95;;
33190;SDS011;19554;42.652;23.364;2023-07-13T04:33:54;11.35;;;6.95;;
33190;SDS011;19554;42.652;23.364;2023-07-13T04:36:20;10.60;;;6.65;;
33190;SDS011;19554;42.652;23.364;2023-07-13T04:38:45;11.20;;;6.88;;
33190;SDS011;19554;42.652;23.364;2023-07-13T04:41:10;13.60;;;7.28;;
33190;SDS011;19554;42.652;23.364;2023-07-13T04:43:37;10.85;;;7.10;;
33190;SDS011;19554;42.652;23.364;2023-07-13T04:46:04;12.40;;;6.78;;
33190;SDS011;19554;42.652;23.364;2023-07-13T04:48:31;15.50;;;7.60;;
33190;SDS011;19554;42.652;23.364;2023-07-13T04:50:57;10.80;;;7.47;;
33190;SDS011;19554;42.652;23.364;2023-07-13T04:53:23;13.70;;;7.50;;
33190;SDS011;19554;42.652;23.364;2023-07-13T04:55:49;16.63;;;7.80;;
33190;SDS011;19554;42.652;23.364;2023-07-13T04:58:15;15.10;;;8.13;;
33190;SDS011;19554;42.652;23.364;2023-07-13T05:00:40;13.23;;;7.20;;
33190;SDS011;19554;42.652;23.364;2023-07-13T05:03:05;12.57;;;7.22;;
33190;SDS011;19554;42.652;23.364;2023-07-13T05:05:31;11.15;;;7.38;;
33190;SDS011;19554;42.652;23.364;2023-07-13T05:07:57;14.65;;;7.53;;
33190;SDS011;19554;42.652;23.364;2023-07-13T05:10:22;14.55;;;7.80;;
33190;SDS011;19554;42.652;23.364;2023-07-13T05:12:48;11.02;;;7.43;;
33190;SDS011;19554;42.652;23.364;2023-07-13T05:15:14;15.60;;;9.02;;
33190;SDS011;19554;42.652;23.364;2023-07-13T05:17:39;14.57;;;8.77;;
33190;SDS011;19554;42.652;23.364;2023-07-13T05:20:05;12.40;;;7.40;;
33190;SDS011;19554;42.652;23.364;2023-07-13T05:22:32;13.38;;;8.15;;
33190;SDS011;19554;42.652;23.364;2023-07-13T05:24:59;13.02;;;8.20;;
33190;SDS011;19554;42.652;23.364;2023-07-13T05:27:25;11.23;;;7.68;;
33190;SDS011;19554;42.652;23.364;2023-07-13T05:29:51;11.10;;;7.47;;
33190;SDS011;19554;42.652;23.364;2023-07-13T05:32:17;13.63;;;8.25;;
33190;SDS011;19554;42.652;23.364;2023-07-13T05:34:43;16.83;;;7.63;;
33190;SDS011;19554;42.652;23.364;2023-07-13T05:37:09;21.40;;;7.60;;
33190;SDS011;19554;42.652;23.364;2023-07-13T05:39:35;13.25;;;7.28;;
33190;SDS011;19554;42.652;23.364;2023-07-13T05:42:01;9.98;;;6.55;;
33190;SDS011;19554;42.652;23.364;2023-07-13T05:44:27;12.88;;;6.35;;
33190;SDS011;19554;42.652;23.364;2023-07-13T05:46:52;8.80;;;6.00;;
33190;SDS011;19554;42.652;23.364;2023-07-13T05:49:18;13.35;;;6.75;;
33190;SDS011;19554;42.652;23.364;2023-07-13T05:51:43;10.27;;;7.03;;
33190;SDS011;19554;42.652;23.364;2023-07-13T05:54:09;10.13;;;6.60;;
33190;SDS011;19554;42.652;23.364;2023-07-13T05:56:34;14.70;;;6.93;;
33190;SDS011;19554;42.652;23.364;2023-07-13T05:59:00;13.93;;;6.60;;
33190;SDS011;19554;42.652;23.364;2023-07-13T06:01:25;8.50;;;7.00;;
33190;SDS011;19554;42.652;23.364;2023-07-13T06:03:51;11.00;;;8.10;;
33190;SDS011;19554;42.652;23.364;2023-07-13T06:06:16;12.85;;;6.80;;
33190;SDS011;19554;42.652;23.364;2023-07-13T06:08:42;9.25;;;6.80;;
33190;SDS011;19554;42.652;23.364;2023-07-13T06:11:09;11.20;;;7.03;;
33190;SDS011;19554;42.652;23.364;2023-07-13T06:13:35;12.13;;;6.97;;
33190;SDS011;19554;42.652;23.364;2023-07-13T06:16:01;10.95;;;7.05;;
33190;SDS011;19554;42.652;23.364;2023-07-13T06:18:29;12.73;;;6.53;;
33190;SDS011;19554;42.652;23.364;2023-07-13T06:20:56;11.75;;;8.18;;
33190;SDS011;19554;42.652;23.364;2023-07-13T06:23:22;9.75;;;6.85;;
33190;SDS011;19554;42.652;23.364;2023-07-13T06:25:47;10.27;;;7.25;;
33190;SDS011;19554;42.652;23.364;2023-07-13T06:28:13;9.57;;;7.18;;
33190;SDS011;19554;42.652;23.364;2023-07-13T06:30:38;10.85;;;7.35;;
33190;SDS011;19554;42.652;23.364;2023-07-13T06:33:05;12.35;;;7.63;;
33190;SDS011;19554;42.652;23.364;2023-07-13T06:35:31;8.77;;;7.40;;
33190;SDS011;19554;42.652;23.364;2023-07-13T06:37:57;11.27;;;7.20;;
33190;SDS011;19554;42.652;23.364;2023-07-13T06:40:22;14.18;;;8.68;;
33190;SDS011;19554;42.652;23.364;2023-07-13T06:42:47;9.55;;;6.93;;
33190;SDS011;19554;42.652;23.364;2023-07-13T06:45:13;12.82;;;7.32;;
33190;SDS011;19554;42.652;23.364;2023-07-13T06:47:39;10.88;;;6.18;;
33190;SDS011;19554;42.652;23.364;2023-07-13T06:50:04;16.38;;;7.25;;
33190;SDS011;19554;42.652;23.364;2023-07-13T06:52:30;12.70;;;7.10;;
33190;SDS011;19554;42.652;23.364;2023-07-13T06:54:55;14.05;;;7.22;;
33190;SDS011;19554;42.652;23.364;2023-07-13T06:57:21;13.18;;;9.60;;
33190;SDS011;19554;42.652;23.364;2023-07-13T06:59:46;12.32;;;7.50;;
33190;SDS011;19554;42.652;23.364;2023-07-13T07:02:12;12.75;;;7.85;;
33190;SDS011;19554;42.652;23.364;2023-07-13T07:04:37;9.68;;;7.45;;
33190;SDS011;19554;42.652;23.364;2023-07-13T07:07:03;14.27;;;8.23;;
33190;SDS011;19554;42.652;23.364;2023-07-13T07:09:28;12.80;;;8.63;;
33190;SDS011;19554;42.652;23.364;2023-07-13T07:11:55;13.98;;;7.28;;
33190;SDS011;19554;42.652;23.364;2023-07-13T07:14:20;11.20;;;7.75;;
33190;SDS011;19554;42.652;23.364;2023-07-13T07:16:46;15.13;;;8.13;;
33190;SDS011;19554;42.652;23.364;2023-07-13T07:19:11;11.75;;;8.02;;
33190;SDS011;19554;42.652;23.364;2023-07-13T07:21:37;16.13;;;7.57;;
33190;SDS011;19554;42.652;23.364;2023-07-13T07:24:03;13.13;;;8.10;;
33190;SDS011;19554;42.652;23.364;2023-07-13T07:26:30;13.27;;;8.00;;
33190;SDS011;19554;42.652;23.364;2023-07-13T07:28:56;11.45;;;7.63;;
33190;SDS011;19554;42.652;23.364;2023-07-13T07:31:21;19.83;;;8.02;;
33190;SDS011;19554;42.652;23.364;2023-07-13T07:33:46;15.13;;;8.02;;
33190;SDS011;19554;42.652;23.364;2023-07-13T07:36:12;13.35;;;7.97;;
33190;SDS011;19554;42.652;23.364;2023-07-13T07:38:37;17.33;;;7.95;;
33190;SDS011;19554;42.652;23.364;2023-07-13T07:41:03;11.65;;;7.53;;
33190;SDS011;19554;42.652;23.364;2023-07-13T07:43:30;15.85;;;8.68;;
33190;SDS011;19554;42.652;23.364;2023-07-13T07:45:56;12.25;;;7.85;;
33190;SDS011;19554;42.652;23.364;2023-07-13T07:48:21;16.65;;;8.63;;
33190;SDS011;19554;42.652;23.364;2023-07-13T07:50:47;18.58;;;8.75;;
33190;SDS011;19554;42.652;23.364;2023-07-13T07:53:12;18.05;;;8.10;;
33190;SDS011;19554;42.652;23.364;2023-07-13T07:55:38;21.60;;;8.52;;
33190;SDS011;19554;42.652;23.364;2023-07-13T07:58:04;15.68;;;8.60;;
33190;SDS011;19554;42.652;23.364;2023-07-13T08:00:30;16.67;;;7.85;;
33190;SDS011;19554;42.652;23.364;2023-07-13T08:02:56;12.13;;;7.90;;
33190;SDS011;19554;42.652;23.364;2023-07-13T08:05:22;11.23;;;7.05;;
33190;SDS011;19554;42.652;23.364;2023-07-13T09:24:37;14.93;;;7.97;;
33190;SDS011;19554;42.652;23.364;2023-07-13T09:27:25;12.23;;;8.05;;
33190;SDS011;19554;42.652;23.364;2023-07-13T09:30:42;14.40;;;8.65;;
33190;SDS011;19554;42.652;23.364;2023-07-13T09:32:42;12.88;;;8.18;;
33190;SDS011;19554;42.652;23.364;2023-07-13T09:35:12;11.63;;;7.57;;
33190;SDS011;19554;42.652;23.364;2023-07-13T09:37:44;15.82;;;8.15;;
33190;SDS011;19554;42.652;23.364;2023-07-13T09:40:27;11.30;;;8.02;;
33190;SDS011;19554;42.652;23.364;2023-07-13T09:43:01;15.18;;;8.50;;
33190;SDS011;19554;42.652;23.364;2023-07-13T09:45:29;15.43;;;8.63;;
33190;SDS011;19554;42.652;23.364;2023-07-13T09:47:59;15.63;;;9.00;;
33190;SDS011;19554;42.652;23.364;2023-07-13T09:50:29;14.55;;;8.20;;
33190;SDS011;19554;42.652;23.364;2023-07-13T09:52:54;21.65;;;9.07;;
33190;SDS011;19554;42.652;23.364;2023-07-13T09:57:51;12.10;;;8.23;;
33190;SDS011;19554;42.652;23.364;2023-07-13T10:00:27;13.82;;;9.00;;
33190;SDS011;19554;42.652;23.364;2023-07-13T10:03:01;12.73;;;8.38;;
33190;SDS011;19554;42.652;23.364;2023-07-13T10:05:28;19.88;;;8.63;;
33190;SDS011;19554;42.652;23.364;2023-07-13T10:08:03;11.02;;;7.70;;
33190;SDS011;19554;42.652;23.364;2023-07-13T10:10:31;15.00;;;8.48;;
33190;SDS011;19554;42.652;23.364;2023-07-13T10:12:56;13.32;;;7.70;;
33190;SDS011;19554;42.652;23.364;2023-07-13T10:15:23;19.35;;;9.07;;
33190;SDS011;19554;42.652;23.364;2023-07-13T10:17:54;14.07;;;8.60;;
33190;SDS011;19554;42.652;23.364;2023-07-13T10:20:23;15.95;;;8.07;;
33190;SDS011;19554;42.652;23.364;2023-07-13T10:22:50;12.50;;;8.52;;
33190;SDS011;19554;42.652;23.364;2023-07-13T10:25:22;17.20;;;8.98;;
33190;SDS011;19554;42.652;23.364;2023-07-13T10:27:50;14.45;;;8.88;;
33190;SDS011;19554;42.652;23.364;2023-07-13T10:32:53;17.15;;;7.95;;
33190;SDS011;19554;42.652;23.364;2023-07-13T10:35:19;9.93;;;7.85;;
33190;SDS011;19554;42.652;23.364;2023-07-13T10:37:55;13.35;;;7.90;;
33190;SDS011;19554;42.652;23.364;2023-07-13T10:40:27;17.95;;;8.23;;
33190;SDS011;19554;42.652;23.364;2023-07-13T10:42:57;13.35;;;7.60;;
33190;SDS011;19554;42.652;23.364;2023-07-13T10:47:59;13.98;;;7.78;;
33190;SDS011;19554;42.652;23.364;2023-07-13T10:50:26;10.95;;;7.88;;
33190;SDS011;19554;42.652;23.364;2023-07-13T10:52:56;12.55;;;7.75;;
33190;SDS011;19554;42.652;23.364;2023-07-13T10:55:35;14.77;;;7.80;;
33190;SDS011;19554;42.652;23.364;2023-07-13T10:58:18;13.35;;;6.35;;
33190;SDS011;19554;42.652;23.364;2023-07-13T11:08:56;9.63;;;4.60;;
33190;SDS011;19554;42.652;23.364;2023-07-13T11:18:44;11.13;;;6.77;;
33190;SDS011;19554;42.652;23.364;2023-07-13T11:21:26;15.85;;;7.10;;
33190;SDS011;19554;42.652;23.364;2023-07-13T11:24:02;10.27;;;6.00;;
33190;SDS011;19554;42.652;23.364;2023-07-13T11:31:57;14.30;;;7.82;;
33190;SDS011;19554;42.652;23.364;2023-07-13T11:36:55;16.58;;;7.38;;
33190;SDS011;19554;42.652;23.364;2023-07-13T11:39:30;12.05;;;7.03;;
33190;SDS011;19554;42.652;23.364;2023-07-13T11:42:02;8.98;;;6.53;;
33190;SDS011;19554;42.652;23.364;2023-07-13T11:44:32;11.70;;;7.32;;
33190;SDS011;19554;42.652;23.364;2023-07-13T11:47:00;10.27;;;7.15;;
33190;SDS011;19554;42.652;23.364;2023-07-13T11:49:40;10.50;;;6.30;;
33190;SDS011;19554;42.652;23.364;2023-07-13T11:52:16;12.07;;;6.75;;
33190;SDS011;19554;42.652;23.364;2023-07-13T11:54:51;12.85;;;7.03;;
33190;SDS011;19554;42.652;23.364;2023-07-13T11:57:23;18.42;;;6.50;;
33190;SDS011;19554;42.652;23.364;2023-07-13T11:59:56;10.40;;;5.28;;
33190;SDS011;19554;42.652;23.364;2023-07-13T12:02:29;14.93;;;6.00;;
33190;SDS011;19554;42.652;23.364;2023-07-13T12:04:57;7.70;;;5.45;;
33190;SDS011;19554;42.652;23.364;2023-07-13T12:07:27;11.70;;;5.63;;
33190;SDS011;19554;42.652;23.364;2023-07-13T12:09:59;10.23;;;5.40;;
33190;SDS011;19554;42.652;23.364;2023-07-13T12:12:28;14.35;;;6.35;;
33190;SDS011;19554;42.652;23.364;2023-07-13T12:14:55;10.95;;;5.57;;
33190;SDS011;19554;42.652;23.364;2023-07-13T12:17:22;9.48;;;5.93;;
33190;SDS011;19554;42.652;23.364;2023-07-13T12:19:49;13.52;;;5.72;;
33190;SDS011;19554;42.652;23.364;2023-07-13T12:22:16;12.57;;;5.38;;
33190;SDS011;19554;42.652;23.364;2023-07-13T12:24:43;9.55;;;5.10;;
33190;SDS011;19554;42.652;23.364;2023-07-13T12:27:20;9.35;;;5.25;;
33190;SDS011;19554;42.652;23.364;2023-07-13T12:29:51;8.82;;;4.88;;
33190;SDS011;19554;42.652;23.364;2023-07-13T12:32:22;13.30;;;5.13;;
33190;SDS011;19554;42.652;23.364;2023-07-13T12:34:51;7.72;;;5.32;;
33190;SDS011;19554;42.652;23.364;2023-07-13T12:37:21;11.45;;;5.38;;
33190;SDS011;19554;42.652;23.364;2023-07-13T12:39:47;10.02;;;5.47;;
33190;SDS011;19554;42.652;23.364;2023-07-13T12:47:57;8.32;;;5.40;;
33190;SDS011;19554;42.652;23.364;2023-07-13T12:50:28;11.02;;;6.53;;
33190;SDS011;19554;42.652;23.364;2023-07-13T12:53:03;13.52;;;7.03;;
33190;SDS011;19554;42.652;23.364;2023-07-13T12:55:45;14.23;;;7.53;;
33190;SDS011;19554;42.652;23.364;2023-07-13T12:58:26;13.65;;;7.25;;
33190;SDS011;19554;42.652;23.364;2023-07-13T13:00:54;17.08;;;7.18;;
33190;SDS011;19554;42.652;23.364;2023-07-13T13:03:30;17.65;;;6.72;;
33190;SDS011;19554;42.652;23.364;2023-07-13T13:06:01;9.23;;;6.65;;
33190;SDS011;19554;42.652;23.364;2023-07-13T13:08:35;9.95;;;6.93;;
33190;SDS011;19554;42.652;23.364;2023-07-13T13:11:02;15.93;;;6.93;;
33190;SDS011;19554;42.652;23.364;2023-07-13T13:13:28;20.50;;;6.80;;
33190;SDS011;19554;42.652;23.364;2023-07-13T13:15:53;13.43;;;6.35;;
33190;SDS011;19554;42.652;23.364;2023-07-13T13:18:20;12.40;;;7.18;;
33190;SDS011;19554;42.652;23.364;2023-07-13T13:20:47;10.45;;;6.78;;
33190;SDS011;19554;42.652;23.364;2023-07-13T13:23:15;13.63;;;6.78;;
33190;SDS011;19554;42.652;23.364;2023-07-13T13:25:46;13.43;;;7.63;;
33190;SDS011;19554;42.652;23.364;2023-07-13T13:28:17;16.48;;;6.50;;
33190;SDS011;19554;42.652;23.364;2023-07-13T13:30:44;15.52;;;6.68;;
33190;SDS011;19554;42.652;23.364;2023-07-13T13:33:12;11.25;;;6.18;;
33190;SDS011;19554;42.652;23.364;2023-07-13T13:35:43;14.52;;;6.18;;
33190;SDS011;19554;42.652;23.364;2023-07-13T13:38:12;12.20;;;6.90;;
33190;SDS011;19554;42.652;23.364;2023-07-13T13:40:40;12.40;;;6.25;;
33190;SDS011;19554;42.652;23.364;2023-07-13T13:43:14;15.75;;;6.93;;
33190;SDS011;19554;42.652;23.364;2023-07-13T13:45:44;15.43;;;7.00;;
33190;SDS011;19554;42.652;23.364;2023-07-13T13:48:13;9.68;;;6.10;;
33190;SDS011;19554;42.652;23.364;2023-07-13T13:50:44;17.80;;;6.70;;
33190;SDS011;19554;42.652;23.364;2023-07-13T13:53:10;14.27;;;7.47;;
33190;SDS011;19554;42.652;23.364;2023-07-13T13:55:38;9.50;;;6.40;;
33190;SDS011;19554;42.652;23.364;2023-07-13T13:58:03;15.00;;;6.40;;
33190;SDS011;19554;42.652;23.364;2023-07-13T14:00:29;13.32;;;6.10;;
33190;SDS011;19554;42.652;23.364;2023-07-13T14:02:55;15.95;;;6.38;;
33190;SDS011;19554;42.652;23.364;2023-07-13T14:05:23;10.13;;;6.32;;
33190;SDS011;19554;42.652;23.364;2023-07-13T14:07:51;11.90;;;6.13;;
33190;SDS011;19554;42.652;23.364;2023-07-13T14:10:18;13.13;;;6.15;;
33190;SDS011;19554;42.652;23.364;2023-07-13T14:12:51;16.15;;;6.93;;
33190;SDS011;19554;42.652;23.364;2023-07-13T14:15:22;11.13;;;6.47;;
33190;SDS011;19554;42.652;23.364;2023-07-13T14:17:50;12.93;;;5.80;;
33190;SDS011;19554;42.652;23.364;2023-07-13T14:20:16;12.00;;;6.22;;
33190;SDS011;19554;42.652;23.364;2023-07-13T14:22:43;15.65;;;6.43;;
33190;SDS011;19554;42.652;23.364;2023-07-13T14:25:12;14.90;;;6.18;;
33190;SDS011;19554;42.652;23.364;2023-07-13T14:27:39;15.55;;;6.75;;
33190;SDS011;19554;42.652;23.364;2023-07-13T14:30:12;14.05;;;6.65;;
33190;SDS011;19554;42.652;23.364;2023-07-13T14:32:39;13.02;;;7.22;;
33190;SDS011;19554;42.652;23.364;2023-07-13T14:35:04;14.77;;;6.60;;
33190;SDS011;19554;42.652;23.364;2023-07-13T14:37:30;16.33;;;6.68;;
33190;SDS011;19554;42.652;23.364;2023-07-13T14:39:56;16.15;;;6.32;;
33190;SDS011;19554;42.652;23.364;2023-07-13T14:42:21;12.55;;;6.38;;
33190;SDS011;19554;42.652;23.364;2023-07-13T14:44:46;14.65;;;5.82;;
33190;SDS011;19554;42.652;23.364;2023-07-13T14:47:12;15.52;;;6.03;;
33190;SDS011;19554;42.652;23.364;2023-07-13T14:49:38;13.13;;;6.28;;
33190;SDS011;19554;42.652;23.364;2023-07-13T14:52:12;13.63;;;7.03;;
33190;SDS011;19554;42.652;23.364;2023-07-13T14:54:40;12.65;;;6.38;;
33190;SDS011;19554;42.652;23.364;2023-07-13T14:57:11;19.38;;;11.50;;
33190;SDS011;19554;42.652;23.364;2023-07-13T14:59:41;11.48;;;5.85;;
33190;SDS011;19554;42.652;23.364;2023-07-13T15:02:14;18.63;;;6.82;;
33190;SDS011;19554;42.652;23.364;2023-07-13T15:04:42;16.55;;;6.07;;
33190;SDS011;19554;42.652;23.364;2023-07-13T15:07:09;16.63;;;7.60;;
33190;SDS011;19554;42.652;23.364;2023-07-13T15:09:37;13.82;;;5.85;;
33190;SDS011;19554;42.652;23.364;2023-07-13T15:12:02;14.77;;;7.30;;
33190;SDS011;19554;42.652;23.364;2023-07-13T15:14:30;16.42;;;6.55;;
33190;SDS011;19554;42.652;23.364;2023-07-13T15:16:56;12.63;;;6.18;;
33190;SDS011;19554;42.652;23.364;2023-07-13T15:19:21;13.02;;;6.32;;
33190;SDS011;19554;42.652;23.364;2023-07-13T15:21:48;13.52;;;7.55;;
33190;SDS011;19554;42.652;23.364;2023-07-13T15:24:15;15.75;;;7.63;;
33190;SDS011;19554;42.652;23.364;2023-07-13T15:26:40;14.88;;;5.53;;
33190;SDS011;19554;42.652;23.364;2023-07-13T15:29:10;14.48;;;5.65;;
33190;SDS011;19554;42.652;23.364;2023-07-13T15:31:36;11.05;;;5.40;;
33190;SDS011;19554;42.652;23.364;2023-07-13T15:34:04;14.50;;;6.47;;
33190;SDS011;19554;42.652;23.364;2023-07-13T15:36:36;15.85;;;6.00;;
33190;SDS011;19554;42.652;23.364;2023-07-13T15:39:01;15.75;;;5.97;;
33190;SDS011;19554;42.652;23.364;2023-07-13T15:41:27;15.38;;;6.03;;
33190;SDS011;19554;42.652;23.364;2023-07-13T15:43:54;15.57;;;6.22;;
33190;SDS011;19554;42.652;23.364;2023-07-13T15:46:24;13.55;;;6.82;;
33190;SDS011;19554;42.652;23.364;2023-07-13T15:48:51;15.27;;;7.40;;
33190;SDS011;19554;42.652;23.364;2023-07-13T15:51:25;9.82;;;7.18;;
33190;SDS011;19554;42.652;23.364;2023-07-13T15:53:53;15.85;;;7.57;;
33190;SDS011;19554;42.652;23.364;2023-07-13T15:56:25;15.60;;;6.65;;
33190;SDS011;19554;42.652;23.364;2023-07-13T15:58:52;16.23;;;6.75;;
33190;SDS011;19554;42.652;23.364;2023-07-13T16:01:19;17.65;;;7.70;;
33190;SDS011;19554;42.652;23.364;2023-07-13T16:03:45;13.02;;;7.13;;
33190;SDS011;19554;42.652;23.364;2023-07-13T16:06:15;13.57;;;7.85;;
33190;SDS011;19554;42.652;23.364;2023-07-13T16:08:44;12.68;;;6.07;;
33190;SDS011;19554;42.652;23.364;2023-07-13T16:11:12;12.77;;;6.55;;
33190;SDS011;19554;42.652;23.364;2023-07-13T16:13:43;12.70;;;5.90;;
33190;SDS011;19554;42.652;23.364;2023-07-13T16:16:10;11.43;;;6.18;;
33190;SDS011;19554;42.652;23.364;2023-07-13T16:18:37;14.07;;;7.05;;
33190;SDS011;19554;42.652;23.364;2023-07-13T16:21:03;11.95;;;6.30;;